Time;durP1;ratioP1;P1;durP2;ratioP2;P2;SDS_P1;SDS_P2;PMS_P1;PMS_P2;Temp;Humidity;BMP_temperature;BMP_pressure;BME280_temperature;BME280_humidity;BME280_pressure;Samples;Min_cycle;Max_cycle;Signal;HPM_P1;HPM_P2
2022/03/21 00:00:46;;;;;;;1.60;1.52;;;;;;;;;;5051839;28;20357;-65
2022/03/21 00:03:13;;;;;;;0.10;0.10;;;;;;;;;;5035054;28;20123;-64
2022/03/21 00:05:39;;;;;;;0.10;0.10;;;;;;;;;;5070004;28;20037;-65
2022/03/21 00:08:04;;;;;;;0.10;0.10;;;;;;;;;;5069294;28;20031;-65
2022/03/21 00:10:34;;;;;;;0.10;0.10;;;;;;;;;;5069284;28;20028;-66
2022/03/21 00:13:00;;;;;;;0.10;0.10;;;;;;;;;;5069897;28;20037;-64
2022/03/21 00:15:26;;;;;;;0.10;0.10;;;;;;;;;;5035276;28;20032;-64
2022/03/21 00:17:52;;;;;;;0.20;0.20;;;;;;;;;;5035020;28;20036;-64
2022/03/21 00:20:18;;;;;;;0.10;0.10;;;;;;;;;;5069064;28;20093;-65
2022/03/21 00:22:44;;;;;;;0.15;0.15;;;;;;;;;;5034718;28;20028;-64
2022/03/21 00:25:09;;;;;;;0.90;0.73;;;;;;;;;;5069110;28;20055;-65
2022/03/21 00:27:36;;;;;;;4.20;2.58;;;;;;;;;;5051256;28;20024;-66
2022/03/21 00:30:04;;;;;;;0.10;0.10;;;;;;;;;;5051719;28;20044;-64
2022/03/21 00:32:30;;;;;;;0.20;0.10;;;;;;;;;;5034637;28;20044;-67
2022/03/21 00:34:55;;;;;;;0.10;0.10;;;;;;;;;;5051215;28;20491;-64
2022/03/21 00:37:23;;;;;;;0.10;0.10;;;;;;;;;;5069175;28;20509;-64
2022/03/21 00:39:51;;;;;;;0.10;0.10;;;;;;;;;;5034320;28;20488;-65
2022/03/21 00:42:17;;;;;;;0.10;0.10;;;;;;;;;;5034254;28;20077;-64
2022/03/21 00:44:42;;;;;;;0.20;0.20;;;;;;;;;;5068792;28;20036;-67
2022/03/21 00:47:08;;;;;;;0.10;0.10;;;;;;;;;;5068993;28;20033;-65
2022/03/21 00:49:33;;;;;;;0.10;0.10;;;;;;;;;;5069234;28;20037;-64
2022/03/21 00:51:59;;;;;;;0.52;0.52;;;;;;;;;;5068869;28;20047;-64
2022/03/21 00:54:25;;;;;;;0.10;0.10;;;;;;;;;;5068634;28;20024;-65
2022/03/21 00:56:50;;;;;;;0.35;0.35;;;;;;;;;;5050992;28;20123;-64
2022/03/21 00:59:16;;;;;;;0.20;0.20;;;;;;;;;;5068865;28;20032;-64
2022/03/21 01:01:41;;;;;;;1.75;1.58;;;;;;;;;;5069023;28;20235;-65
2022/03/21 01:04:07;;;;;;;0.10;0.10;;;;;;;;;;5068887;28;20032;-65
2022/03/21 01:06:35;;;;;;;0.10;0.10;;;;;;;;;;5051136;28;20044;-64
2022/03/21 01:09:01;;;;;;;0.10;0.10;;;;;;;;;;5033868;28;20032;-65
2022/03/21 01:11:26;;;;;;;0.10;0.10;;;;;;;;;;5034197;28;20063;-65
2022/03/21 01:13:52;;;;;;;0.10;0.10;;;;;;;;;;5068556;28;20031;-65
2022/03/21 01:16:17;;;;;;;0.10;0.10;;;;;;;;;;5068262;28;20039;-64
2022/03/21 01:18:46;;;;;;;0.10;0.10;;;;;;;;;;5068527;28;20094;-65
2022/03/21 01:21:12;;;;;;;0.10;0.10;;;;;;;;;;5068437;28;20037;-63
2022/03/21 01:23:37;;;;;;;0.10;0.10;;;;;;;;;;5050456;28;20056;-64
2022/03/21 01:26:03;;;;;;;0.50;0.50;;;;;;;;;;5068353;28;20044;-65
2022/03/21 01:28:28;;;;;;;0.10;0.10;;;;;;;;;;5068004;28;20029;-67
2022/03/21 01:30:54;;;;;;;0.10;0.10;;;;;;;;;;5069003;28;20032;-63
2022/03/21 01:33:19;;;;;;;0.20;0.20;;;;;;;;;;5068648;28;20044;-69
2022/03/21 01:35:45;;;;;;;2.40;1.85;;;;;;;;;;5068218;28;20076;-69
2022/03/21 01:38:10;;;;;;;3.35;2.10;;;;;;;;;;5068173;28;20033;-64
2022/03/21 01:40:36;;;;;;;1.17;1.08;;;;;;;;;;5068293;28;20097;-65
2022/03/21 01:43:01;;;;;;;1.77;0.95;;;;;;;;;;5034029;28;20369;-64
2022/03/21 01:45:28;;;;;;;6.55;0.95;;;;;;;;;;5068163;28;20075;-64
2022/03/21 01:47:53;;;;;;;1.80;1.50;;;;;;;;;;5050084;28;20115;-65
2022/03/21 01:50:20;;;;;;;0.10;0.10;;;;;;;;;;5067952;28;20150;-65
2022/03/21 01:52:45;;;;;;;0.10;0.10;;;;;;;;;;5068378;28;20113;-65
2022/03/21 01:57:56;;;;;;;0.10;0.10;;;;;;;;;;5068101;28;20047;-64
2022/03/21 02:00:22;;;;;;;0.10;0.10;;;;;;;;;;5068263;28;20063;-69
2022/03/21 02:02:50;;;;;;;0.10;0.10;;;;;;;;;;5050268;28;20085;-64
2022/03/21 02:05:15;;;;;;;0.10;0.10;;;;;;;;;;5049981;28;20040;-64
2022/03/21 02:07:41;;;;;;;0.13;0.13;;;;;;;;;;5067848;28;20487;-64
2022/03/21 02:10:07;;;;;;;1.17;0.68;;;;;;;;;;5033120;28;20480;-65
2022/03/21 02:12:33;;;;;;;0.10;0.10;;;;;;;;;;5050003;28;20036;-63
2022/03/21 02:14:59;;;;;;;0.10;0.10;;;;;;;;;;5033405;28;20020;-71
2022/03/21 02:17:26;;;;;;;0.10;0.10;;;;;;;;;;5049917;28;20040;-64
2022/03/21 02:19:52;;;;;;;0.17;0.17;;;;;;;;;;5034689;28;20028;-66
2022/03/21 02:22:21;;;;;;;0.10;0.10;;;;;;;;;;5052614;28;20487;-65
2022/03/21 02:25:20;;;;;;;0.10;0.10;;;;;;;;;;5036847;28;20040;-66
2022/03/21 02:27:46;;;;;;;0.10;0.10;;;;;;;;;;5048095;28;20037;-65
2022/03/21 02:30:13;;;;;;;0.10;0.10;;;;;;;;;;5052999;28;20040;-64
2022/03/21 02:32:40;;;;;;;0.10;0.10;;;;;;;;;;5036177;28;20017;-65
2022/03/21 02:35:06;;;;;;;0.10;0.10;;;;;;;;;;5036740;28;20039;-67
2022/03/21 02:37:32;;;;;;;0.10;0.10;;;;;;;;;;5052910;28;20060;-64
2022/03/21 02:39:58;;;;;;;0.10;0.10;;;;;;;;;;5070911;28;20086;-65
2022/03/21 02:42:23;;;;;;;0.10;0.10;;;;;;;;;;5036092;28;20039;-65
2022/03/21 02:44:49;;;;;;;0.10;0.10;;;;;;;;;;5071062;28;20044;-65
2022/03/21 02:47:14;;;;;;;0.10;0.10;;;;;;;;;;5070946;28;20056;-64
2022/03/21 02:49:40;;;;;;;0.10;0.10;;;;;;;;;;5070634;28;20415;-65
2022/03/21 02:52:06;;;;;;;0.10;0.10;;;;;;;;;;5070505;28;20510;-72
2022/03/21 02:54:32;;;;;;;0.10;0.10;;;;;;;;;;5053296;28;20387;-65
2022/03/21 02:56:58;;;;;;;0.10;0.10;;;;;;;;;;5036380;28;20033;-65
2022/03/21 02:59:24;;;;;;;0.10;0.10;;;;;;;;;;5052547;28;20403;-66
2022/03/21 03:01:53;;;;;;;0.10;0.10;;;;;;;;;;5036134;28;20032;-66
2022/03/21 03:04:20;;;;;;;0.10;0.10;;;;;;;;;;5035735;28;20032;-65
2022/03/21 03:06:45;;;;;;;0.10;0.10;;;;;;;;;;5036089;28;20045;-64
2022/03/21 03:09:11;;;;;;;0.10;0.10;;;;;;;;;;5052592;28;20052;-64
2022/03/21 03:11:37;;;;;;;0.10;0.10;;;;;;;;;;5070628;28;20032;-64
2022/03/21 03:14:03;;;;;;;0.10;0.10;;;;;;;;;;5052383;28;20043;-65
2022/03/21 03:16:28;;;;;;;0.10;0.10;;;;;;;;;;5035942;28;20037;-69
2022/03/21 03:18:54;;;;;;;0.10;0.10;;;;;;;;;;5070303;28;20029;-64
2022/03/21 03:21:22;;;;;;;0.10;0.10;;;;;;;;;;5070701;28;20353;-63
2022/03/21 03:23:49;;;;;;;0.20;0.20;;;;;;;;;;5070757;28;20113;-72
2022/03/21 03:26:14;;;;;;;0.10;0.10;;;;;;;;;;5035533;28;20036;-63
2022/03/21 03:28:40;;;;;;;0.10;0.10;;;;;;;;;;5070485;28;20050;-63
2022/03/21 03:31:05;;;;;;;0.10;0.10;;;;;;;;;;5069847;28;20488;-67
2022/03/21 03:33:31;;;;;;;0.10;0.10;;;;;;;;;;5070100;28;20024;-63
2022/03/21 03:35:57;;;;;;;0.10;0.10;;;;;;;;;;5070218;28;20358;-63
2022/03/21 03:38:22;;;;;;;0.10;0.10;;;;;;;;;;5069834;28;20040;-63
2022/03/21 03:40:48;;;;;;;0.10;0.10;;;;;;;;;;5070035;28;20106;-64
2022/03/21 03:43:16;;;;;;;0.10;0.10;;;;;;;;;;5070143;28;20059;-63
2022/03/21 03:45:42;;;;;;;0.10;0.10;;;;;;;;;;5035694;28;20035;-62
2022/03/21 03:48:08;;;;;;;0.10;0.10;;;;;;;;;;5035011;28;20036;-64
2022/03/21 03:50:34;;;;;;;0.10;0.10;;;;;;;;;;5027497;28;20493;-65
2022/03/21 03:53:00;;;;;;;0.20;0.20;;;;;;;;;;5049949;28;20040;-71
2022/03/21 03:55:26;;;;;;;0.10;0.10;;;;;;;;;;5049911;28;20037;-68
2022/03/21 03:57:52;;;;;;;0.10;0.10;;;;;;;;;;5015461;28;20045;-66
2022/03/21 04:00:17;;;;;;;0.05;0.05;;;;;;;;;;5049562;28;20036;-65
2022/03/21 04:05:44;;;;;;;0.10;0.10;;;;;;;;;;5007765;28;20473;-64
2022/03/21 04:08:10;;;;;;;0.10;0.10;;;;;;;;;;5007071;28;20049;-66
2022/03/21 04:10:35;;;;;;;0.10;0.10;;;;;;;;;;5049556;28;20491;-65
2022/03/21 04:13:01;;;;;;;0.10;0.10;;;;;;;;;;5049991;28;20013;-67
2022/03/21 04:15:27;;;;;;;0.10;0.10;;;;;;;;;;5015408;28;20036;-72
2022/03/21 04:17:53;;;;;;;0.10;0.10;;;;;;;;;;5032213;28;20115;-65
2022/03/21 04:20:20;;;;;;;0.10;0.10;;;;;;;;;;5015114;28;20060;-64
2022/03/21 04:22:46;;;;;;;0.10;0.10;;;;;;;;;;5015069;28;20116;-69
2022/03/21 04:25:13;;;;;;;0.10;0.10;;;;;;;;;;5049683;28;20124;-65
2022/03/21 04:27:39;;;;;;;0.10;0.10;;;;;;;;;;5049262;28;20069;-73
2022/03/21 04:30:06;;;;;;;0.10;0.10;;;;;;;;;;5015217;28;20523;-64
2022/03/21 04:32:31;;;;;;;0.10;0.10;;;;;;;;;;5015020;28;20476;-66
2022/03/21 04:34:57;;;;;;;0.10;0.10;;;;;;;;;;5049187;28;20029;-65
2022/03/21 04:37:23;;;;;;;0.10;0.10;;;;;;;;;;5031359;28;20033;-64
2022/03/21 04:39:48;;;;;;;0.10;0.10;;;;;;;;;;5048877;28;20045;-64
2022/03/21 04:42:15;;;;;;;0.10;0.10;;;;;;;;;;5048233;28;20025;-65
2022/03/21 04:44:40;;;;;;;0.10;0.10;;;;;;;;;;5014937;28;20132;-64
2022/03/21 04:47:06;;;;;;;0.10;0.10;;;;;;;;;;5049186;28;20050;-65
2022/03/21 04:49:32;;;;;;;0.10;0.10;;;;;;;;;;5014992;28;20037;-64
2022/03/21 04:51:58;;;;;;;0.10;0.10;;;;;;;;;;5049066;28;20499;-64
2022/03/21 04:54:23;;;;;;;0.10;0.10;;;;;;;;;;5048909;28;20033;-64
2022/03/21 04:56:48;;;;;;;0.10;0.10;;;;;;;;;;5049279;28;20083;-65
2022/03/21 04:59:14;;;;;;;0.20;0.20;;;;;;;;;;5030905;28;20041;-65
2022/03/21 05:01:39;;;;;;;0.10;0.10;;;;;;;;;;5031161;28;20041;-64
2022/03/21 05:04:05;;;;;;;0.15;0.15;;;;;;;;;;5048899;28;20036;-66
2022/03/21 05:06:31;;;;;;;0.10;0.10;;;;;;;;;;5048426;28;20472;-64
2022/03/21 05:08:56;;;;;;;0.10;0.10;;;;;;;;;;5048821;28;20037;-64
2022/03/21 05:11:21;;;;;;;0.10;0.10;;;;;;;;;;5031187;28;20104;-65
2022/03/21 05:13:47;;;;;;;0.10;0.10;;;;;;;;;;5030680;28;20051;-65
2022/03/21 05:16:13;;;;;;;0.10;0.10;;;;;;;;;;5014349;28;20116;-64
2022/03/21 05:18:39;;;;;;;0.10;0.10;;;;;;;;;;5030876;28;20037;-65
2022/03/21 05:21:05;;;;;;;0.10;0.10;;;;;;;;;;5048847;28;20037;-66
2022/03/21 05:31:42;;;;;;;0.10;0.10;;;;;;;;;;5048692;28;20064;-64
2022/03/21 05:36:53;;;;;;;0.10;0.10;;;;;;;;;;5048284;28;20040;-65
2022/03/21 05:39:18;;;;;;;0.10;0.10;;;;;;;;;;5048500;28;20029;-64
2022/03/21 05:41:44;;;;;;;0.10;0.10;;;;;;;;;;5048408;28;20037;-64
2022/03/21 05:44:11;;;;;;;0.10;0.10;;;;;;;;;;5048054;28;20033;-64
2022/03/21 05:46:36;;;;;;;0.10;0.10;;;;;;;;;;5030568;28;20358;-69
2022/03/21 05:49:02;;;;;;;0.10;0.10;;;;;;;;;;5048481;28;20031;-63
2022/03/21 05:51:32;;;;;;;0.10;0.10;;;;;;;;;;5047798;28;20037;-64
2022/03/21 05:53:58;;;;;;;;;;;;;;;;;;5032671;28;20070;-65
2022/03/21 05:56:25;;;;;;;0.10;0.10;;;;;;;;;;5034123;28;19912;-68
2022/03/21 05:58:52;;;;;;;0.10;0.10;;;;;;;;;;5017562;28;20059;-64
2022/03/21 06:01:21;;;;;;;0.10;0.10;;;;;;;;;;5017134;28;20039;-65
2022/03/21 06:03:48;;;;;;;0.10;0.10;;;;;;;;;;5017339;28;20029;-67
2022/03/21 06:06:14;;;;;;;0.10;0.10;;;;;;;;;;5033569;28;20611;-64
2022/03/21 06:08:39;;;;;;;0.17;0.15;;;;;;;;;;5017281;28;20044;-64
2022/03/21 06:11:05;;;;;;;0.10;0.10;;;;;;;;;;5051647;28;20372;-68
2022/03/21 06:13:34;;;;;;;0.25;0.25;;;;;;;;;;5051602;28;20044;-64
2022/03/21 06:16:03;;;;;;;0.20;0.20;;;;;;;;;;5017003;28;20613;-64
2022/03/21 06:18:29;;;;;;;0.10;0.10;;;;;;;;;;5023836;28;20064;-73
2022/03/21 06:20:55;;;;;;;0.10;0.10;;;;;;;;;;5070042;28;20036;-65
2022/03/21 06:23:20;;;;;;;0.47;0.47;;;;;;;;;;5069866;28;20047;-71
2022/03/21 06:25:46;;;;;;;0.10;0.10;;;;;;;;;;5051498;28;20021;-70
2022/03/21 06:28:11;;;;;;;0.10;0.10;;;;;;;;;;5051373;28;20052;-69
2022/03/21 06:30:37;;;;;;;0.10;0.10;;;;;;;;;;5072122;28;20479;-68
2022/03/21 06:33:03;;;;;;;0.10;0.10;;;;;;;;;;5075893;28;20027;-70
2022/03/21 06:35:30;;;;;;;0.10;0.10;;;;;;;;;;5084424;28;20866;-67
2022/03/21 06:37:55;;;;;;;0.10;0.10;;;;;;;;;;5086657;28;20043;-68
2022/03/21 06:40:23;;;;;;;0.10;0.10;;;;;;;;;;5086589;28;20028;-69
2022/03/21 06:42:49;;;;;;;0.10;0.10;;;;;;;;;;5086321;28;20039;-69
2022/03/21 06:45:15;;;;;;;0.10;0.10;;;;;;;;;;5086639;28;20633;-68
2022/03/21 06:47:41;;;;;;;0.10;0.10;;;;;;;;;;5069000;28;20494;-70
2022/03/21 06:50:07;;;;;;;0.10;0.10;;;;;;;;;;5086921;28;20044;-69
2022/03/21 06:52:34;;;;;;;0.10;0.10;;;;;;;;;;5069110;28;20028;-68
2022/03/21 06:55:00;;;;;;;0.10;0.10;;;;;;;;;;5052233;28;20486;-68
2022/03/21 06:57:25;;;;;;;0.10;0.10;;;;;;;;;;5086633;28;20044;-69
2022/03/21 06:59:51;;;;;;;0.10;0.10;;;;;;;;;;5085886;28;20100;-69
2022/03/21 07:02:17;;;;;;;0.10;0.10;;;;;;;;;;5081032;28;20032;-68
2022/03/21 07:04:42;;;;;;;0.10;0.10;;;;;;;;;;5055557;28;20063;-68
2022/03/21 07:07:08;;;;;;;0.10;0.10;;;;;;;;;;5067098;28;20029;-68
2022/03/21 07:09:33;;;;;;;0.10;0.10;;;;;;;;;;5068224;28;20551;-68
2022/03/21 07:11:59;;;;;;;0.10;0.10;;;;;;;;;;5049999;28;20028;-66
2022/03/21 07:14:24;;;;;;;0.10;0.10;;;;;;;;;;5027295;28;20048;-68
2022/03/21 07:16:50;;;;;;;0.20;0.20;;;;;;;;;;5047281;28;20045;-69
2022/03/21 07:19:15;;;;;;;0.10;0.10;;;;;;;;;;5047376;28;20435;-66
2022/03/21 07:21:41;;;;;;;0.10;0.10;;;;;;;;;;5045990;28;20017;-68
2022/03/21 07:24:07;;;;;;;0.17;0.17;;;;;;;;;;5045974;28;20362;-70
2022/03/21 07:26:33;;;;;;;0.10;0.10;;;;;;;;;;5065749;28;20484;-68
2022/03/21 07:28:58;;;;;;;0.13;0.13;;;;;;;;;;5066196;28;20040;-67
2022/03/21 07:31:24;;;;;;;0.13;0.13;;;;;;;;;;5065452;28;20129;-69
2022/03/21 07:33:49;;;;;;;0.22;0.22;;;;;;;;;;5065755;28;20059;-70
2022/03/21 07:36:15;;;;;;;0.20;0.20;;;;;;;;;;5065888;28;20033;-67
2022/03/21 07:38:40;;;;;;;0.20;0.20;;;;;;;;;;5065433;28;20052;-68
2022/03/21 07:41:07;;;;;;;0.20;0.20;;;;;;;;;;5065962;28;20028;-69
2022/03/21 07:43:33;;;;;;;0.20;0.20;;;;;;;;;;5065816;28;20033;-69
2022/03/21 07:48:42;;;;;;;0.17;0.17;;;;;;;;;;5067408;28;20384;-68
2022/03/21 07:51:08;;;;;;;0.20;0.20;;;;;;;;;;5067714;28;20040;-69
2022/03/21 07:53:34;;;;;;;0.20;0.20;;;;;;;;;;5050012;28;20109;-68
2022/03/21 07:56:00;;;;;;;0.35;0.32;;;;;;;;;;5067463;28;20033;-67
2022/03/21 07:58:29;;;;;;;0.20;0.20;;;;;;;;;;5066892;28;20379;-69
2022/03/21 08:00:56;;;;;;;0.20;0.20;;;;;;;;;;5067348;28;20041;-68
2022/03/21 08:03:22;;;;;;;0.30;0.30;;;;;;;;;;5078726;28;20036;-68
2022/03/21 08:05:48;;;;;;;0.20;0.20;;;;;;;;;;5067357;28;20021;-68
2022/03/21 08:08:15;;;;;;;0.20;0.20;;;;;;;;;;5067852;28;20439;-69
2022/03/21 08:10:41;;;;;;;0.10;0.10;;;;;;;;;;5070261;28;20040;-68
2022/03/21 08:13:08;;;;;;;0.20;0.20;;;;;;;;;;5084459;28;20032;-69
2022/03/21 08:15:36;;;;;;;0.47;0.40;;;;;;;;;;5068855;28;20475;-69
2022/03/21 08:18:03;;;;;;;0.43;0.43;;;;;;;;;;5086487;28;20046;-69
2022/03/21 08:20:38;;;;;;;0.25;0.25;;;;;;;;;;5068341;28;20039;-69
2022/03/21 08:23:06;;;;;;;0.25;0.25;;;;;;;;;;5069363;28;20042;-69
2022/03/21 08:25:32;;;;;;;6.32;2.17;;;;;;;;;;5086717;28;20082;-68
2022/03/21 08:27:57;;;;;;;0.10;0.10;;;;;;;;;;5086234;28;20047;-68
2022/03/21 08:30:23;;;;;;;0.20;0.20;;;;;;;;;;5085851;28;20036;-69
2022/03/21 08:32:49;;;;;;;0.25;0.25;;;;;;;;;;5085911;28;20038;-68
2022/03/21 08:35:16;;;;;;;0.52;0.52;;;;;;;;;;5086511;28;20066;-69
2022/03/21 08:37:41;;;;;;;0.30;0.30;;;;;;;;;;5087050;28;20020;-69
2022/03/21 08:40:08;;;;;;;0.28;0.28;;;;;;;;;;5085944;28;20043;-69
2022/03/21 08:42:33;;;;;;;0.55;0.55;;;;;;;;;;5085767;28;20423;-68
2022/03/21 08:44:59;;;;;;;0.20;0.20;;;;;;;;;;5057926;28;20579;-70
2022/03/21 08:47:24;;;;;;;0.20;0.20;;;;;;;;;;5075628;28;20031;-70
2022/03/21 08:49:50;;;;;;;0.20;0.20;;;;;;;;;;5066307;28;20037;-70
2022/03/21 08:52:15;;;;;;;0.10;0.10;;;;;;;;;;5064231;28;20054;-71
2022/03/21 08:54:41;;;;;;;0.20;0.20;;;;;;;;;;5065809;28;20668;-70
2022/03/21 08:57:07;;;;;;;0.20;0.20;;;;;;;;;;5064885;28;20051;-70
2022/03/21 08:59:32;;;;;;;0.20;0.20;;;;;;;;;;5045639;28;20047;-70
2022/03/21 09:01:58;;;;;;;0.20;0.20;;;;;;;;;;5065204;28;20762;-71
2022/03/21 09:04:24;;;;;;;0.20;0.20;;;;;;;;;;5065016;28;20044;-69
2022/03/21 09:06:50;;;;;;;0.20;0.20;;;;;;;;;;5047069;28;20067;-70
2022/03/21 09:09:18;;;;;;;0.20;0.20;;;;;;;;;;5065632;28;20456;-70
2022/03/21 09:11:44;;;;;;;0.10;0.10;;;;;;;;;;5064685;28;20016;-70
2022/03/21 09:14:09;;;;;;;0.20;0.20;;;;;;;;;;5063773;28;20044;-71
2022/03/21 09:16:36;;;;;;;0.20;0.20;;;;;;;;;;5064328;28;20058;-72
2022/03/21 09:19:01;;;;;;;0.15;0.15;;;;;;;;;;5046370;28;20111;-71
2022/03/21 09:21:28;;;;;;;0.15;0.15;;;;;;;;;;5063330;28;20044;-72
2022/03/21 09:23:53;;;;;;;0.22;0.22;;;;;;;;;;5046474;28;20044;-72
2022/03/21 09:26:21;;;;;;;0.10;0.10;;;;;;;;;;5065039;28;20036;-72
2022/03/21 09:28:48;;;;;;;0.17;0.17;;;;;;;;;;5065833;28;20032;-72
2022/03/21 09:31:14;;;;;;;0.10;0.10;;;;;;;;;;5067201;28;20028;-71
2022/03/21 09:33:40;;;;;;;0.40;0.40;;;;;;;;;;5067170;28;20040;-72
2022/03/21 09:36:06;;;;;;;1.25;1.00;;;;;;;;;;5067601;28;20460;-70
2022/03/21 09:38:31;;;;;;;0.40;0.40;;;;;;;;;;5067021;28;20051;-71
2022/03/21 09:40:58;;;;;;;0.30;0.30;;;;;;;;;;5049530;28;20036;-71
2022/03/21 09:43:26;;;;;;;2.03;1.85;;;;;;;;;;5049320;28;20487;-73
2022/03/21 09:45:53;;;;;;;0.30;0.30;;;;;;;;;;5067926;28;20131;-73
2022/03/21 09:48:19;;;;;;;0.20;0.20;;;;;;;;;;5067664;28;20137;-73
2022/03/21 09:50:45;;;;;;;0.30;0.30;;;;;;;;;;5067805;28;20488;-72
2022/03/21 09:53:15;;;;;;;0.20;0.20;;;;;;;;;;5067432;28;20099;-71
2022/03/21 09:55:40;;;;;;;;;;;;;;;;;;5067287;28;20112;-71
2022/03/21 09:58:09;;;;;;;0.30;0.30;;;;;;;;;;5065207;28;20016;-72
2022/03/21 10:00:35;;;;;;;0.35;0.35;;;;;;;;;;5067266;28;20094;-72
2022/03/21 10:03:00;;;;;;;1.85;0.77;;;;;;;;;;5066154;28;20028;-71
2022/03/21 10:05:29;;;;;;;0.30;0.30;;;;;;;;;;5067162;28;20031;-73
2022/03/21 10:08:09;;;;;;;0.20;0.20;;;;;;;;;;5067507;28;20037;-71
2022/03/21 10:10:34;;;;;;;0.28;0.28;;;;;;;;;;5067338;28;20044;-74
2022/03/21 10:12:59;;;;;;;0.30;0.30;;;;;;;;;;5064288;28;20078;-74
2022/03/21 10:15:28;;;;;;;0.30;0.30;;;;;;;;;;5066586;28;20482;-72
2022/03/21 10:18:09;;;;;;;0.30;0.30;;;;;;;;;;5066186;28;20036;-72
2022/03/21 10:20:35;;;;;;;0.30;0.30;;;;;;;;;;5049639;28;20115;-73
2022/03/21 10:23:19;;;;;;;0.90;0.70;;;;;;;;;;5049787;28;20485;-71
2022/03/21 10:25:45;;;;;;;0.30;0.30;;;;;;;;;;5029345;28;20365;-73
2022/03/21 10:28:30;;;;;;;0.40;0.40;;;;;;;;;;5064630;28;20043;-72
2022/03/21 10:30:56;;;;;;;1.55;1.45;;;;;;;;;;5066633;28;20056;-71
2022/03/21 10:33:23;;;;;;;0.32;0.32;;;;;;;;;;5066478;28;20236;-71
2022/03/21 10:35:48;;;;;;;0.30;0.30;;;;;;;;;;5048880;28;20128;-72
2022/03/21 10:38:28;;;;;;;0.30;0.30;;;;;;;;;;5066892;28;20437;-72
2022/03/21 10:40:53;;;;;;;0.35;0.35;;;;;;;;;;5034402;28;20078;-73
2022/03/21 10:43:19;;;;;;;0.30;0.30;;;;;;;;;;5070140;28;20033;-73
2022/03/21 10:45:45;;;;;;;0.22;0.22;;;;;;;;;;5052369;28;20496;-72
2022/03/21 10:48:29;;;;;;;0.75;0.73;;;;;;;;;;5052476;28;20090;-73
2022/03/21 10:50:55;;;;;;;0.22;0.22;;;;;;;;;;5070327;28;20043;-73
2022/03/21 10:53:24;;;;;;;0.30;0.30;;;;;;;;;;5070296;28;20044;-73
2022/03/21 10:55:59;;;;;;;0.20;0.20;;;;;;;;;;5069888;28;20021;-73
2022/03/21 10:58:34;;;;;;;0.52;0.52;;;;;;;;;;5069900;28;20569;-73
2022/03/21 11:01:12;;;;;;;0.40;0.40;;;;;;;;;;5069645;28;20118;-73
2022/03/21 11:03:41;;;;;;;0.20;0.20;;;;;;;;;;5069719;28;20123;-73
2022/03/21 11:06:12;;;;;;;0.40;0.40;;;;;;;;;;5070362;28;20033;-74
2022/03/21 11:08:38;;;;;;;0.17;0.17;;;;;;;;;;5052444;28;20044;-74
2022/03/21 11:11:04;;;;;;;0.30;0.30;;;;;;;;;;5069762;28;20028;-74
2022/03/21 11:13:30;;;;;;;1.00;0.82;;;;;;;;;;5069531;28;20388;-71
2022/03/21 11:15:55;;;;;;;0.30;0.30;;;;;;;;;;5070071;28;20032;-72
2022/03/21 11:18:21;;;;;;;0.30;0.30;;;;;;;;;;5069752;28;20040;-73
2022/03/21 11:20:47;;;;;;;1.02;1.00;;;;;;;;;;5069734;28;20060;-71
2022/03/21 11:23:15;;;;;;;0.68;0.68;;;;;;;;;;5070038;28;20059;-69
2022/03/21 11:25:45;;;;;;;0.90;0.90;;;;;;;;;;5069990;28;20041;-69
2022/03/21 11:28:20;;;;;;;0.63;0.63;;;;;;;;;;5069291;28;20044;-72
2022/03/21 11:30:45;;;;;;;2.50;1.60;;;;;;;;;;5070094;28;20033;-70
2022/03/21 11:33:29;;;;;;;0.47;0.47;;;;;;;;;;5069680;28;20043;-70
2022/03/21 11:35:59;;;;;;;4.93;2.75;;;;;;;;;;5069110;28;20029;-69
2022/03/21 11:38:27;;;;;;;3.88;2.28;;;;;;;;;;5051485;28;20037;-69
2022/03/21 11:41:09;;;;;;;4.82;3.10;;;;;;;;;;5070408;28;20354;-68
2022/03/21 11:43:35;;;;;;;4.85;3.42;;;;;;;;;;5051008;28;20032;-69
2022/03/21 11:46:19;;;;;;;5.28;1.45;;;;;;;;;;5069433;28;20031;-70
2022/03/21 11:48:44;;;;;;;1.45;1.35;;;;;;;;;;5050261;28;20032;-69
2022/03/21 11:51:16;;;;;;;1.55;0.88;;;;;;;;;;5068851;28;20078;-70
2022/03/21 11:53:46;;;;;;;2.80;1.67;;;;;;;;;;5051705;28;20497;-69
2022/03/21 11:56:34;;;;;;;2.50;1.77;;;;;;;;;;5069172;28;20043;-70
2022/03/21 11:59:00;;;;;;;1.13;0.95;;;;;;;;;;5068789;28;20067;-72
2022/03/21 12:01:28;;;;;;;5.05;2.28;;;;;;;;;;5050608;28;20020;-68
2022/03/21 12:03:54;;;;;;;3.28;1.70;;;;;;;;;;5068633;28;20043;-70
2022/03/21 12:06:19;;;;;;;6.13;1.88;;;;;;;;;;5050331;28;20040;-71
2022/03/21 12:08:49;;;;;;;2.30;1.63;;;;;;;;;;5069966;28;20020;-71
2022/03/21 12:11:33;;;;;;;2.50;1.65;;;;;;;;;;5049754;28;20129;-69
2022/03/21 12:14:18;;;;;;;3.15;2.08;;;;;;;;;;5087160;28;20119;-68
2022/03/21 12:16:43;;;;;;;2.55;1.70;;;;;;;;;;5089505;28;20067;-69
2022/03/21 12:19:09;;;;;;;1.63;1.40;;;;;;;;;;5089449;28;20070;-69
2022/03/21 12:21:34;;;;;;;2.70;2.47;;;;;;;;;;5070554;28;20032;-70
2022/03/21 12:24:13;;;;;;;3.33;2.40;;;;;;;;;;5084780;28;20379;-70
2022/03/21 12:26:46;;;;;;;1.83;1.07;;;;;;;;;;5034257;28;20156;-69
2022/03/21 12:29:34;;;;;;;6.50;3.92;;;;;;;;;;5068656;28;20119;-67
2022/03/21 12:32:38;;;;;;;4.65;2.50;;;;;;;;;;5074746;28;20035;-70
2022/03/21 12:35:03;;;;;;;3.60;1.92;;;;;;;;;;4986042;28;20744;-71
2022/03/21 12:37:34;;;;;;;2.10;1.13;;;;;;;;;;4968570;28;20113;-71
2022/03/21 12:40:00;;;;;;;3.28;2.08;;;;;;;;;;5017534;28;20083;-71
2022/03/21 12:42:28;;;;;;;3.25;2.53;;;;;;;;;;5067748;28;20369;-72
2022/03/21 12:44:53;;;;;;;2.65;1.52;;;;;;;;;;5086047;28;20136;-71
2022/03/21 12:47:20;;;;;;;0.85;0.70;;;;;;;;;;5086560;28;20115;-72
2022/03/21 12:49:46;;;;;;;2.28;1.35;;;;;;;;;;5068841;28;20031;-71
2022/03/21 12:52:12;;;;;;;1.20;1.08;;;;;;;;;;5068523;28;20475;-72
2022/03/21 12:54:47;;;;;;;5.85;2.72;;;;;;;;;;5069686;28;20059;-71
2022/03/21 12:57:12;;;;;;;2.63;1.75;;;;;;;;;;5088969;28;20032;-71
2022/03/21 12:59:38;;;;;;;3.20;1.98;;;;;;;;;;5087446;28;20395;-71
2022/03/21 13:02:04;;;;;;;3.50;1.85;;;;;;;;;;5087467;28;20085;-72
2022/03/21 13:12:41;;;;;;;3.45;2.22;;;;;;;;;;5085982;28;20024;-71
2022/03/21 13:15:08;;;;;;;3.78;2.65;;;;;;;;;;5070514;28;20051;-70
2022/03/21 13:17:43;;;;;;;2.83;1.58;;;;;;;;;;5050556;28;20039;-71
2022/03/21 13:20:09;;;;;;;4.70;1.80;;;;;;;;;;5054145;28;20063;-72
2022/03/21 13:22:34;;;;;;;4.38;2.63;;;;;;;;;;5086971;28;20483;-71
2022/03/21 13:25:00;;;;;;;2.90;2.05;;;;;;;;;;5085447;28;20031;-71
2022/03/21 13:27:32;;;;;;;6.97;3.40;;;;;;;;;;5088159;28;20024;-71
2022/03/21 13:29:58;;;;;;;3.55;2.20;;;;;;;;;;5088229;28;20422;-71
2022/03/21 13:32:24;;;;;;;4.57;1.70;;;;;;;;;;5087828;28;20020;-71
2022/03/21 13:34:53;;;;;;;1.98;1.50;;;;;;;;;;5067593;28;20122;-72
2022/03/21 13:37:24;;;;;;;3.80;1.17;;;;;;;;;;5085209;28;20031;-71
2022/03/21 13:40:03;;;;;;;3.60;1.67;;;;;;;;;;5075849;28;20114;-71
2022/03/21 13:42:31;;;;;;;4.40;2.65;;;;;;;;;;5066934;28;20040;-71
2022/03/21 13:45:01;;;;;;;3.17;2.15;;;;;;;;;;5067699;28;20385;-71
2022/03/21 13:47:27;;;;;;;2.55;1.45;;;;;;;;;;5067300;28;20040;-73
2022/03/21 13:49:54;;;;;;;5.60;3.30;;;;;;;;;;5067365;28;20024;-74
2022/03/21 13:52:38;;;;;;;1.20;0.70;;;;;;;;;;5067282;28;20427;-73
2022/03/21 13:55:04;;;;;;;7.28;1.48;;;;;;;;;;5067734;28;20067;-68
2022/03/21 13:57:29;;;;;;;4.32;3.00;;;;;;;;;;5049277;28;20068;-69
2022/03/21 13:59:58;;;;;;;1.50;1.25;;;;;;;;;;5066950;28;20517;-68
2022/03/21 14:02:24;;;;;;;0.45;0.45;;;;;;;;;;5067277;28;20025;-68
2022/03/21 14:04:53;;;;;;;4.22;2.53;;;;;;;;;;5067027;28;20047;-68
2022/03/21 14:07:18;;;;;;;5.00;2.53;;;;;;;;;;5067705;28;20029;-68
2022/03/21 14:09:50;;;;;;;1.92;1.27;;;;;;;;;;5066956;28;20028;-68
2022/03/21 14:12:16;;;;;;;2.00;1.35;;;;;;;;;;5065881;28;20037;-68
2022/03/21 14:14:42;;;;;;;6.25;2.58;;;;;;;;;;5067311;28;20024;-67
2022/03/21 14:17:07;;;;;;;3.38;2.67;;;;;;;;;;5069549;28;20051;-68
2022/03/21 14:19:35;;;;;;;1.02;0.65;;;;;;;;;;5069481;28;20128;-66
2022/03/21 14:22:00;;;;;;;2.53;1.67;;;;;;;;;;5069283;28;20424;-67
2022/03/21 14:24:27;;;;;;;3.20;1.67;;;;;;;;;;5069610;28;20365;-68
2022/03/21 14:26:52;;;;;;;2.60;1.88;;;;;;;;;;5052474;28;20043;-68
2022/03/21 14:29:18;;;;;;;2.17;1.67;;;;;;;;;;5053019;28;20078;-67
2022/03/21 14:31:44;;;;;;;5.47;2.13;;;;;;;;;;5070339;28;20208;-67
2022/03/21 14:34:14;;;;;;;5.88;3.58;;;;;;;;;;5052461;28;20025;-66
2022/03/21 14:36:40;;;;;;;0.30;0.30;;;;;;;;;;5070246;28;20055;-66
2022/03/21 14:39:06;;;;;;;4.85;2.38;;;;;;;;;;5070276;28;20064;-67
2022/03/21 14:41:32;;;;;;;6.00;2.22;;;;;;;;;;5070387;28;20066;-67
2022/03/21 14:43:58;;;;;;;1.00;0.73;;;;;;;;;;5070208;28;20131;-67
2022/03/21 14:46:23;;;;;;;3.72;1.98;;;;;;;;;;5070203;28;20120;-66
2022/03/21 14:48:50;;;;;;;2.92;1.85;;;;;;;;;;5069668;28;20037;-66
2022/03/21 14:51:15;;;;;;;2.33;1.45;;;;;;;;;;5070511;28;20031;-68
2022/03/21 14:53:41;;;;;;;4.35;2.20;;;;;;;;;;5069804;28;20124;-68
2022/03/21 14:56:07;;;;;;;4.57;3.00;;;;;;;;;;5069431;28;20048;-67
2022/03/21 14:58:34;;;;;;;4.95;2.65;;;;;;;;;;5070160;28;20024;-67
2022/03/21 15:01:00;;;;;;;3.97;2.53;;;;;;;;;;5070044;28;20074;-68
2022/03/21 15:03:26;;;;;;;2.97;1.90;;;;;;;;;;5070365;28;20373;-67
2022/03/21 15:05:52;;;;;;;5.38;3.58;;;;;;;;;;5052228;28;20040;-67
2022/03/21 15:08:18;;;;;;;8.00;3.00;;;;;;;;;;5069851;28;20135;-67
2022/03/21 15:10:44;;;;;;;5.47;2.65;;;;;;;;;;5070807;28;20167;-68